Glasgow, Montana
Current Conditions -  °F | °C
As of 3:53 AM on Saturday 25 Oct 2014 (Local Time) from KGGW Reporting Station
Overcast Overcast  
Wind Chill: 42°   Ceiling: 10000
Heat Index: 42°   Visibility: 10mi
Dew Point: 32°   Wind: 3mph
Humidity: 67%   Direction: 130°SE
Pressure: 30.09"   Gusts: NA
Location:  48.2°N, 106.64°W
Report Text: KGGW 250953Z AUTO 13003KT 10SM FEW070 OVC100 06/00 A3009 RMK AO2 SLP199 T00560000
Loading
Personal Weather Stations






























Interactive Weather Map New forecast layout! Learn more

10-Day Weather Forecast

Advertisements
Track Severe Weather on mobile